sensor_id;sensor_type;location;lat;lon;timestamp;P1;durP1;ratioP1;P2;durP2;ratioP2
70663;SDS011;58237;57.996;56.290;2024-03-02T00:02:23;5.63;;;2.67;;
70663;SDS011;58237;57.996;56.290;2024-03-02T00:04:48;5.72;;;2.30;;
70663;SDS011;58237;57.996;56.290;2024-03-02T00:07:14;4.95;;;3.00;;
70663;SDS011;58237;57.996;56.290;2024-03-02T00:09:40;7.10;;;2.47;;
70663;SDS011;58237;57.996;56.290;2024-03-02T00:12:06;7.63;;;2.35;;
70663;SDS011;58237;57.996;56.290;2024-03-02T00:14:31;7.15;;;3.17;;
70663;SDS011;58237;57.996;56.290;2024-03-02T00:16:57;6.22;;;2.25;;
70663;SDS011;58237;57.996;56.290;2024-03-02T00:19:23;6.78;;;3.17;;
70663;SDS011;58237;57.996;56.290;2024-03-02T00:21:48;8.75;;;2.63;;
70663;SDS011;58237;57.996;56.290;2024-03-02T00:24:18;6.97;;;2.85;;
70663;SDS011;58237;57.996;56.290;2024-03-02T00:26:46;6.85;;;2.85;;
70663;SDS011;58237;57.996;56.290;2024-03-02T00:29:11;8.98;;;3.47;;
70663;SDS011;58237;57.996;56.290;2024-03-02T00:31:39;9.32;;;3.15;;
70663;SDS011;58237;57.996;56.290;2024-03-02T00:34:05;7.28;;;2.88;;
70663;SDS011;58237;57.996;56.290;2024-03-02T00:36:31;6.55;;;2.80;;
70663;SDS011;58237;57.996;56.290;2024-03-02T00:38:57;9.82;;;3.75;;
70663;SDS011;58237;57.996;56.290;2024-03-02T00:41:23;8.40;;;3.00;;
70663;SDS011;58237;57.996;56.290;2024-03-02T00:44:06;7.60;;;3.33;;
70663;SDS011;58237;57.996;56.290;2024-03-02T00:46:35;8.52;;;3.03;;
70663;SDS011;58237;57.996;56.290;2024-03-02T00:49:02;10.13;;;3.10;;
70663;SDS011;58237;57.996;56.290;2024-03-02T00:51:32;9.35;;;3.70;;
70663;SDS011;58237;57.996;56.290;2024-03-02T00:54:02;7.22;;;2.53;;
70663;SDS011;58237;57.996;56.290;2024-03-02T00:56:29;8.98;;;3.35;;
70663;SDS011;58237;57.996;56.290;2024-03-02T00:58:56;6.72;;;2.83;;
70663;SDS011;58237;57.996;56.290;2024-03-02T01:01:21;9.55;;;2.83;;
70663;SDS011;58237;57.996;56.290;2024-03-02T01:03:48;8.18;;;2.75;;
70663;SDS011;58237;57.996;56.290;2024-03-02T01:06:14;8.70;;;2.92;;
70663;SDS011;58237;57.996;56.290;2024-03-02T01:08:40;7.03;;;2.40;;
70663;SDS011;58237;57.996;56.290;2024-03-02T01:11:06;10.40;;;3.00;;
70663;SDS011;58237;57.996;56.290;2024-03-02T01:13:32;8.65;;;3.33;;
70663;SDS011;58237;57.996;56.290;2024-03-02T01:15:57;9.00;;;3.40;;
70663;SDS011;58237;57.996;56.290;2024-03-02T01:18:24;7.03;;;3.17;;
70663;SDS011;58237;57.996;56.290;2024-03-02T01:20:50;9.02;;;3.28;;
70663;SDS011;58237;57.996;56.290;2024-03-02T01:23:21;8.30;;;3.45;;
70663;SDS011;58237;57.996;56.290;2024-03-02T01:25:47;5.47;;;2.35;;
70663;SDS011;58237;57.996;56.290;2024-03-02T01:28:13;6.95;;;3.20;;
70663;SDS011;58237;57.996;56.290;2024-03-02T01:30:39;7.28;;;2.22;;
70663;SDS011;58237;57.996;56.290;2024-03-02T01:33:05;6.15;;;2.20;;
70663;SDS011;58237;57.996;56.290;2024-03-02T01:35:31;9.77;;;3.55;;
70663;SDS011;58237;57.996;56.290;2024-03-02T01:37:57;11.02;;;4.03;;
70663;SDS011;58237;57.996;56.290;2024-03-02T01:40:22;9.82;;;3.97;;
70663;SDS011;58237;57.996;56.290;2024-03-02T01:42:52;9.05;;;3.08;;
70663;SDS011;58237;57.996;56.290;2024-03-02T01:45:18;9.13;;;3.13;;
70663;SDS011;58237;57.996;56.290;2024-03-02T01:47:44;6.75;;;2.70;;
70663;SDS011;58237;57.996;56.290;2024-03-02T01:50:11;5.47;;;2.05;;
70663;SDS011;58237;57.996;56.290;2024-03-02T01:52:36;10.80;;;3.20;;
70663;SDS011;58237;57.996;56.290;2024-03-02T01:55:02;8.57;;;3.17;;
70663;SDS011;58237;57.996;56.290;2024-03-02T01:57:29;7.40;;;3.75;;
70663;SDS011;58237;57.996;56.290;2024-03-02T01:59:55;8.73;;;3.50;;
70663;SDS011;58237;57.996;56.290;2024-03-02T02:02:21;9.68;;;3.65;;
70663;SDS011;58237;57.996;56.290;2024-03-02T02:04:46;7.40;;;3.08;;
70663;SDS011;58237;57.996;56.290;2024-03-02T02:07:12;6.07;;;2.53;;
70663;SDS011;58237;57.996;56.290;2024-03-02T02:09:42;7.35;;;2.88;;
70663;SDS011;58237;57.996;56.290;2024-03-02T02:12:09;8.10;;;2.70;;
70663;SDS011;58237;57.996;56.290;2024-03-02T02:14:35;6.97;;;2.80;;
70663;SDS011;58237;57.996;56.290;2024-03-02T02:17:01;5.88;;;3.00;;
70663;SDS011;58237;57.996;56.290;2024-03-02T02:19:27;8.48;;;3.53;;
70663;SDS011;58237;57.996;56.290;2024-03-02T02:21:52;8.35;;;2.90;;
70663;SDS011;58237;57.996;56.290;2024-03-02T02:24:18;5.90;;;2.17;;
70663;SDS011;58237;57.996;56.290;2024-03-02T02:26:43;7.22;;;3.08;;
70663;SDS011;58237;57.996;56.290;2024-03-02T02:29:09;7.75;;;2.97;;
70663;SDS011;58237;57.996;56.290;2024-03-02T02:31:38;6.07;;;2.38;;
70663;SDS011;58237;57.996;56.290;2024-03-02T02:34:04;9.95;;;4.47;;
70663;SDS011;58237;57.996;56.290;2024-03-02T02:36:30;7.38;;;2.92;;
70663;SDS011;58237;57.996;56.290;2024-03-02T02:38:56;7.85;;;3.63;;
70663;SDS011;58237;57.996;56.290;2024-03-02T02:41:21;8.70;;;3.15;;
70663;SDS011;58237;57.996;56.290;2024-03-02T02:43:47;11.57;;;4.55;;
70663;SDS011;58237;57.996;56.290;2024-03-02T02:46:13;9.90;;;3.95;;
70663;SDS011;58237;57.996;56.290;2024-03-02T02:48:38;9.35;;;3.53;;
70663;SDS011;58237;57.996;56.290;2024-03-02T02:51:04;11.43;;;4.47;;
70663;SDS011;58237;57.996;56.290;2024-03-02T02:53:30;13.23;;;4.10;;
70663;SDS011;58237;57.996;56.290;2024-03-02T02:55:55;9.65;;;4.07;;
70663;SDS011;58237;57.996;56.290;2024-03-02T02:58:21;6.78;;;2.72;;
70663;SDS011;58237;57.996;56.290;2024-03-02T03:00:46;10.35;;;4.07;;
70663;SDS011;58237;57.996;56.290;2024-03-02T03:03:12;11.32;;;4.60;;
70663;SDS011;58237;57.996;56.290;2024-03-02T03:05:38;9.20;;;4.35;;
70663;SDS011;58237;57.996;56.290;2024-03-02T03:08:03;9.95;;;5.68;;
70663;SDS011;58237;57.996;56.290;2024-03-02T03:10:29;9.35;;;4.03;;
70663;SDS011;58237;57.996;56.290;2024-03-02T03:12:55;9.85;;;4.18;;
70663;SDS011;58237;57.996;56.290;2024-03-02T03:15:21;7.75;;;2.80;;
70663;SDS011;58237;57.996;56.290;2024-03-02T03:17:47;8.80;;;3.65;;
70663;SDS011;58237;57.996;56.290;2024-03-02T03:20:13;12.77;;;4.63;;
70663;SDS011;58237;57.996;56.290;2024-03-02T03:22:40;10.75;;;4.97;;
70663;SDS011;58237;57.996;56.290;2024-03-02T03:25:05;9.15;;;3.70;;
70663;SDS011;58237;57.996;56.290;2024-03-02T03:27:33;9.98;;;4.35;;
70663;SDS011;58237;57.996;56.290;2024-03-02T03:29:59;10.95;;;3.30;;
70663;SDS011;58237;57.996;56.290;2024-03-02T03:32:24;10.30;;;4.50;;
70663;SDS011;58237;57.996;56.290;2024-03-02T03:34:50;12.55;;;5.78;;
70663;SDS011;58237;57.996;56.290;2024-03-02T03:37:16;9.52;;;4.30;;
70663;SDS011;58237;57.996;56.290;2024-03-02T03:39:42;13.10;;;4.53;;
70663;SDS011;58237;57.996;56.290;2024-03-02T03:42:07;11.40;;;3.25;;
70663;SDS011;58237;57.996;56.290;2024-03-02T03:44:33;9.75;;;4.28;;
70663;SDS011;58237;57.996;56.290;2024-03-02T03:46:58;13.20;;;4.97;;
70663;SDS011;58237;57.996;56.290;2024-03-02T03:49:26;10.60;;;4.07;;
70663;SDS011;58237;57.996;56.290;2024-03-02T03:51:51;8.32;;;3.60;;
70663;SDS011;58237;57.996;56.290;2024-03-02T03:54:17;12.95;;;6.05;;
70663;SDS011;58237;57.996;56.290;2024-03-02T03:56:43;10.98;;;4.78;;
70663;SDS011;58237;57.996;56.290;2024-03-02T03:59:08;8.48;;;3.33;;
70663;SDS011;58237;57.996;56.290;2024-03-02T04:01:34;12.10;;;4.32;;
70663;SDS011;58237;57.996;56.290;2024-03-02T04:04:00;11.10;;;4.20;;
70663;SDS011;58237;57.996;56.290;2024-03-02T04:06:27;10.60;;;5.05;;
70663;SDS011;58237;57.996;56.290;2024-03-02T04:08:53;12.18;;;4.20;;
70663;SDS011;58237;57.996;56.290;2024-03-02T04:11:18;13.07;;;5.43;;
70663;SDS011;58237;57.996;56.290;2024-03-02T04:13:44;11.43;;;4.20;;
70663;SDS011;58237;57.996;56.290;2024-03-02T04:16:09;9.48;;;3.70;;
70663;SDS011;58237;57.996;56.290;2024-03-02T04:18:35;11.40;;;3.83;;
70663;SDS011;58237;57.996;56.290;2024-03-02T04:21:01;12.60;;;4.88;;
70663;SDS011;58237;57.996;56.290;2024-03-02T04:23:26;12.35;;;4.80;;
70663;SDS011;58237;57.996;56.290;2024-03-02T04:25:52;13.35;;;5.50;;
70663;SDS011;58237;57.996;56.290;2024-03-02T04:28:18;11.00;;;4.65;;
70663;SDS011;58237;57.996;56.290;2024-03-02T04:30:44;8.50;;;4.10;;
70663;SDS011;58237;57.996;56.290;2024-03-02T04:33:10;10.15;;;3.78;;
70663;SDS011;58237;57.996;56.290;2024-03-02T04:35:36;8.02;;;3.35;;
70663;SDS011;58237;57.996;56.290;2024-03-02T04:38:02;7.13;;;2.90;;
70663;SDS011;58237;57.996;56.290;2024-03-02T04:40:28;8.73;;;4.05;;
70663;SDS011;58237;57.996;56.290;2024-03-02T04:42:53;7.35;;;3.03;;
70663;SDS011;58237;57.996;56.290;2024-03-02T04:45:19;7.65;;;3.22;;
70663;SDS011;58237;57.996;56.290;2024-03-02T04:47:45;8.60;;;3.30;;
70663;SDS011;58237;57.996;56.290;2024-03-02T04:50:10;8.80;;;3.83;;
70663;SDS011;58237;57.996;56.290;2024-03-02T04:52:36;8.05;;;3.30;;
70663;SDS011;58237;57.996;56.290;2024-03-02T04:55:02;9.35;;;3.47;;
70663;SDS011;58237;57.996;56.290;2024-03-02T04:57:43;9.75;;;4.65;;
70663;SDS011;58237;57.996;56.290;2024-03-02T05:00:09;10.75;;;4.28;;
70663;SDS011;58237;57.996;56.290;2024-03-02T05:02:34;10.90;;;4.22;;
70663;SDS011;58237;57.996;56.290;2024-03-02T05:05:00;13.60;;;4.03;;
70663;SDS011;58237;57.996;56.290;2024-03-02T05:07:26;9.65;;;3.75;;
70663;SDS011;58237;57.996;56.290;2024-03-02T05:09:51;8.60;;;4.07;;
70663;SDS011;58237;57.996;56.290;2024-03-02T05:12:17;8.40;;;3.72;;
70663;SDS011;58237;57.996;56.290;2024-03-02T05:17:28;8.77;;;3.83;;
70663;SDS011;58237;57.996;56.290;2024-03-02T05:19:54;10.02;;;4.47;;
70663;SDS011;58237;57.996;56.290;2024-03-02T05:22:19;10.85;;;4.50;;
70663;SDS011;58237;57.996;56.290;2024-03-02T05:24:45;10.77;;;4.65;;
70663;SDS011;58237;57.996;56.290;2024-03-02T05:27:10;10.95;;;4.20;;
70663;SDS011;58237;57.996;56.290;2024-03-02T05:29:36;10.95;;;4.35;;
70663;SDS011;58237;57.996;56.290;2024-03-02T05:32:03;8.45;;;3.45;;
70663;SDS011;58237;57.996;56.290;2024-03-02T05:34:28;12.65;;;5.00;;
70663;SDS011;58237;57.996;56.290;2024-03-02T05:36:56;15.27;;;5.18;;
70663;SDS011;58237;57.996;56.290;2024-03-02T05:39:23;13.45;;;4.78;;
70663;SDS011;58237;57.996;56.290;2024-03-02T05:41:48;10.85;;;4.10;;
70663;SDS011;58237;57.996;56.290;2024-03-02T05:44:14;12.95;;;5.68;;
70663;SDS011;58237;57.996;56.290;2024-03-02T05:46:41;11.23;;;4.28;;
70663;SDS011;58237;57.996;56.290;2024-03-02T05:49:08;8.00;;;3.65;;
70663;SDS011;58237;57.996;56.290;2024-03-02T05:51:35;9.65;;;4.15;;
70663;SDS011;58237;57.996;56.290;2024-03-02T05:54:00;9.35;;;4.60;;
70663;SDS011;58237;57.996;56.290;2024-03-02T05:56:26;12.60;;;5.00;;
70663;SDS011;58237;57.996;56.290;2024-03-02T05:58:52;9.10;;;4.13;;
70663;SDS011;58237;57.996;56.290;2024-03-02T06:04:02;12.43;;;4.45;;
70663;SDS011;58237;57.996;56.290;2024-03-02T06:06:27;14.20;;;5.55;;
70663;SDS011;58237;57.996;56.290;2024-03-02T06:08:53;8.85;;;3.97;;
70663;SDS011;58237;57.996;56.290;2024-03-02T06:11:19;10.50;;;4.25;;
70663;SDS011;58237;57.996;56.290;2024-03-02T06:13:45;8.20;;;3.85;;
70663;SDS011;58237;57.996;56.290;2024-03-02T06:16:11;11.25;;;5.47;;
70663;SDS011;58237;57.996;56.290;2024-03-02T06:18:36;10.25;;;4.50;;
70663;SDS011;58237;57.996;56.290;2024-03-02T06:21:02;11.57;;;5.05;;
70663;SDS011;58237;57.996;56.290;2024-03-02T06:23:28;10.98;;;5.18;;
70663;SDS011;58237;57.996;56.290;2024-03-02T06:25:54;8.95;;;4.00;;
70663;SDS011;58237;57.996;56.290;2024-03-02T06:28:19;11.73;;;5.28;;
70663;SDS011;58237;57.996;56.290;2024-03-02T06:30:46;11.55;;;3.75;;
70663;SDS011;58237;57.996;56.290;2024-03-02T06:33:11;9.57;;;4.55;;
70663;SDS011;58237;57.996;56.290;2024-03-02T06:35:37;13.60;;;5.68;;
70663;SDS011;58237;57.996;56.290;2024-03-02T06:38:03;10.23;;;4.18;;
70663;SDS011;58237;57.996;56.290;2024-03-02T06:40:29;12.23;;;5.60;;
70663;SDS011;58237;57.996;56.290;2024-03-02T06:42:54;10.45;;;5.30;;
70663;SDS011;58237;57.996;56.290;2024-03-02T06:45:20;10.73;;;4.78;;
70663;SDS011;58237;57.996;56.290;2024-03-02T06:47:45;14.88;;;6.80;;
70663;SDS011;58237;57.996;56.290;2024-03-02T06:50:11;11.77;;;6.03;;
70663;SDS011;58237;57.996;56.290;2024-03-02T06:52:37;13.82;;;6.15;;
70663;SDS011;58237;57.996;56.290;2024-03-02T06:55:02;18.23;;;8.80;;
70663;SDS011;58237;57.996;56.290;2024-03-02T06:57:29;20.70;;;11.23;;
70663;SDS011;58237;57.996;56.290;2024-03-02T06:59:55;19.30;;;9.00;;
70663;SDS011;58237;57.996;56.290;2024-03-02T07:02:24;17.77;;;7.20;;
70663;SDS011;58237;57.996;56.290;2024-03-02T07:04:52;14.32;;;6.18;;
70663;SDS011;58237;57.996;56.290;2024-03-02T07:07:18;13.02;;;6.15;;
70663;SDS011;58237;57.996;56.290;2024-03-02T07:09:44;10.60;;;4.75;;
70663;SDS011;58237;57.996;56.290;2024-03-02T07:12:09;11.80;;;5.88;;
70663;SDS011;58237;57.996;56.290;2024-03-02T07:14:35;14.25;;;7.13;;
70663;SDS011;58237;57.996;56.290;2024-03-02T07:17:19;12.95;;;5.68;;
70663;SDS011;58237;57.996;56.290;2024-03-02T07:19:44;14.90;;;6.93;;
70663;SDS011;58237;57.996;56.290;2024-03-02T07:22:10;17.27;;;7.70;;
70663;SDS011;58237;57.996;56.290;2024-03-02T07:24:39;14.05;;;6.82;;
70663;SDS011;58237;57.996;56.290;2024-03-02T07:27:06;16.52;;;5.97;;
70663;SDS011;58237;57.996;56.290;2024-03-02T07:29:32;14.05;;;5.88;;
70663;SDS011;58237;57.996;56.290;2024-03-02T07:31:57;14.65;;;6.72;;
70663;SDS011;58237;57.996;56.290;2024-03-02T07:34:23;14.20;;;6.15;;
70663;SDS011;58237;57.996;56.290;2024-03-02T07:36:49;14.48;;;5.30;;
70663;SDS011;58237;57.996;56.290;2024-03-02T07:39:14;11.38;;;5.20;;
70663;SDS011;58237;57.996;56.290;2024-03-02T07:41:40;11.90;;;5.10;;
70663;SDS011;58237;57.996;56.290;2024-03-02T07:44:06;12.00;;;5.60;;
70663;SDS011;58237;57.996;56.290;2024-03-02T07:46:32;11.80;;;6.30;;
70663;SDS011;58237;57.996;56.290;2024-03-02T07:48:58;14.15;;;7.15;;
70663;SDS011;58237;57.996;56.290;2024-03-02T07:51:26;15.52;;;6.35;;
70663;SDS011;58237;57.996;56.290;2024-03-02T07:53:52;12.88;;;6.57;;
70663;SDS011;58237;57.996;56.290;2024-03-02T07:56:18;12.63;;;5.75;;
70663;SDS011;58237;57.996;56.290;2024-03-02T07:58:48;12.55;;;6.97;;
70663;SDS011;58237;57.996;56.290;2024-03-02T08:01:14;16.85;;;7.47;;
70663;SDS011;58237;57.996;56.290;2024-03-02T08:03:40;12.48;;;6.90;;
70663;SDS011;58237;57.996;56.290;2024-03-02T08:06:06;14.20;;;6.28;;
70663;SDS011;58237;57.996;56.290;2024-03-02T08:08:31;11.75;;;5.25;;
70663;SDS011;58237;57.996;56.290;2024-03-02T08:10:57;12.00;;;6.60;;
70663;SDS011;58237;57.996;56.290;2024-03-02T08:13:23;12.73;;;5.25;;
70663;SDS011;58237;57.996;56.290;2024-03-02T08:15:48;10.60;;;4.20;;
70663;SDS011;58237;57.996;56.290;2024-03-02T08:18:14;11.65;;;5.13;;
70663;SDS011;58237;57.996;56.290;2024-03-02T08:20:40;12.02;;;4.72;;
70663;SDS011;58237;57.996;56.290;2024-03-02T08:23:06;10.93;;;4.75;;
70663;SDS011;58237;57.996;56.290;2024-03-02T08:25:32;9.60;;;4.45;;
70663;SDS011;58237;57.996;56.290;2024-03-02T08:27:57;10.48;;;4.45;;
70663;SDS011;58237;57.996;56.290;2024-03-02T08:30:23;15.02;;;7.32;;
70663;SDS011;58237;57.996;56.290;2024-03-02T08:32:49;14.55;;;6.03;;
70663;SDS011;58237;57.996;56.290;2024-03-02T08:35:14;18.63;;;9.07;;
70663;SDS011;58237;57.996;56.290;2024-03-02T08:37:40;18.92;;;9.32;;
70663;SDS011;58237;57.996;56.290;2024-03-02T08:40:07;20.77;;;9.50;;
70663;SDS011;58237;57.996;56.290;2024-03-02T08:42:33;22.00;;;10.40;;
70663;SDS011;58237;57.996;56.290;2024-03-02T08:44:59;16.23;;;7.80;;
70663;SDS011;58237;57.996;56.290;2024-03-02T08:47:26;12.27;;;6.22;;
70663;SDS011;58237;57.996;56.290;2024-03-02T08:49:52;12.60;;;5.30;;
70663;SDS011;58237;57.996;56.290;2024-03-02T08:52:18;14.95;;;6.05;;
70663;SDS011;58237;57.996;56.290;2024-03-02T08:54:44;10.25;;;5.38;;
70663;SDS011;58237;57.996;56.290;2024-03-02T08:57:09;10.75;;;4.15;;
70663;SDS011;58237;57.996;56.290;2024-03-02T08:59:35;11.35;;;4.32;;
70663;SDS011;58237;57.996;56.290;2024-03-02T09:02:01;14.82;;;6.70;;
70663;SDS011;58237;57.996;56.290;2024-03-02T09:04:27;14.50;;;6.15;;
70663;SDS011;58237;57.996;56.290;2024-03-02T09:06:53;11.85;;;5.10;;
70663;SDS011;58237;57.996;56.290;2024-03-02T09:09:18;15.55;;;6.82;;
70663;SDS011;58237;57.996;56.290;2024-03-02T09:11:45;17.10;;;8.50;;
70663;SDS011;58237;57.996;56.290;2024-03-02T09:14:11;18.10;;;8.75;;
70663;SDS011;58237;57.996;56.290;2024-03-02T09:16:37;12.15;;;5.68;;
70663;SDS011;58237;57.996;56.290;2024-03-02T09:19:03;12.35;;;6.80;;
70663;SDS011;58237;57.996;56.290;2024-03-02T09:21:29;17.77;;;9.63;;
70663;SDS011;58237;57.996;56.290;2024-03-02T09:23:55;17.23;;;8.90;;
70663;SDS011;58237;57.996;56.290;2024-03-02T09:26:22;19.42;;;9.25;;
70663;SDS011;58237;57.996;56.290;2024-03-02T09:28:50;17.63;;;8.63;;
70663;SDS011;58237;57.996;56.290;2024-03-02T09:31:16;17.60;;;8.45;;
70663;SDS011;58237;57.996;56.290;2024-03-02T09:33:41;25.13;;;8.57;;
70663;SDS011;58237;57.996;56.290;2024-03-02T09:36:16;14.85;;;6.75;;
70663;SDS011;58237;57.996;56.290;2024-03-02T09:38:42;16.25;;;7.85;;
70663;SDS011;58237;57.996;56.290;2024-03-02T09:41:07;16.05;;;8.10;;
70663;SDS011;58237;57.996;56.290;2024-03-02T09:43:33;17.80;;;9.57;;
70663;SDS011;58237;57.996;56.290;2024-03-02T09:45:59;14.75;;;6.70;;
70663;SDS011;58237;57.996;56.290;2024-03-02T09:48:24;12.35;;;6.22;;
70663;SDS011;58237;57.996;56.290;2024-03-02T09:50:50;11.13;;;6.05;;
70663;SDS011;58237;57.996;56.290;2024-03-02T09:53:18;15.18;;;7.65;;
70663;SDS011;58237;57.996;56.290;2024-03-02T09:55:47;18.33;;;7.07;;
70663;SDS011;58237;57.996;56.290;2024-03-02T09:58:13;16.02;;;7.78;;
70663;SDS011;58237;57.996;56.290;2024-03-02T10:00:39;17.20;;;7.20;;
70663;SDS011;58237;57.996;56.290;2024-03-02T10:03:11;16.35;;;8.13;;
70663;SDS011;58237;57.996;56.290;2024-03-02T10:05:37;17.92;;;7.53;;
70663;SDS011;58237;57.996;56.290;2024-03-02T10:08:02;11.98;;;6.13;;
70663;SDS011;58237;57.996;56.290;2024-03-02T10:10:40;10.18;;;5.38;;
70663;SDS011;58237;57.996;56.290;2024-03-02T10:13:07;12.80;;;5.20;;
70663;SDS011;58237;57.996;56.290;2024-03-02T10:15:33;13.35;;;6.53;;
70663;SDS011;58237;57.996;56.290;2024-03-02T10:17:59;18.80;;;8.02;;
70663;SDS011;58237;57.996;56.290;2024-03-02T10:20:25;18.85;;;9.70;;
70663;SDS011;58237;57.996;56.290;2024-03-02T10:22:51;15.98;;;8.68;;
70663;SDS011;58237;57.996;56.290;2024-03-02T10:25:38;17.33;;;7.90;;
70663;SDS011;58237;57.996;56.290;2024-03-02T10:28:03;15.82;;;9.05;;
70663;SDS011;58237;57.996;56.290;2024-03-02T10:30:31;13.55;;;7.15;;
70663;SDS011;58237;57.996;56.290;2024-03-02T10:32:57;17.67;;;8.68;;
70663;SDS011;58237;57.996;56.290;2024-03-02T10:35:22;13.93;;;6.80;;
70663;SDS011;58237;57.996;56.290;2024-03-02T10:37:52;15.63;;;7.13;;
70663;SDS011;58237;57.996;56.290;2024-03-02T10:40:18;12.50;;;6.60;;
70663;SDS011;58237;57.996;56.290;2024-03-02T10:42:44;14.45;;;7.53;;
70663;SDS011;58237;57.996;56.290;2024-03-02T10:45:10;16.77;;;8.32;;
70663;SDS011;58237;57.996;56.290;2024-03-02T10:47:37;16.08;;;8.23;;
70663;SDS011;58237;57.996;56.290;2024-03-02T10:50:04;18.23;;;8.10;;
70663;SDS011;58237;57.996;56.290;2024-03-02T10:52:37;15.68;;;8.13;;
70663;SDS011;58237;57.996;56.290;2024-03-02T10:55:02;14.38;;;7.43;;
70663;SDS011;58237;57.996;56.290;2024-03-02T11:00:06;17.00;;;9.20;;
70663;SDS011;58237;57.996;56.290;2024-03-02T11:02:33;19.08;;;9.15;;
70663;SDS011;58237;57.996;56.290;2024-03-02T11:05:00;18.05;;;8.77;;
70663;SDS011;58237;57.996;56.290;2024-03-02T11:07:29;16.77;;;8.07;;
70663;SDS011;58237;57.996;56.290;2024-03-02T11:09:57;15.40;;;6.25;;
70663;SDS011;58237;57.996;56.290;2024-03-02T11:12:35;13.52;;;6.90;;
70663;SDS011;58237;57.996;56.290;2024-03-02T11:15:02;10.75;;;5.55;;
70663;SDS011;58237;57.996;56.290;2024-03-02T11:17:30;12.32;;;5.35;;
70663;SDS011;58237;57.996;56.290;2024-03-02T11:19:56;15.50;;;7.65;;
70663;SDS011;58237;57.996;56.290;2024-03-02T11:22:22;11.82;;;6.90;;
70663;SDS011;58237;57.996;56.290;2024-03-02T11:24:49;12.02;;;7.20;;
70663;SDS011;58237;57.996;56.290;2024-03-02T11:27:15;17.70;;;8.98;;
70663;SDS011;58237;57.996;56.290;2024-03-02T11:30:00;14.80;;;7.88;;
70663;SDS011;58237;57.996;56.290;2024-03-02T11:32:26;15.13;;;7.30;;
70663;SDS011;58237;57.996;56.290;2024-03-02T11:34:51;11.77;;;5.70;;
70663;SDS011;58237;57.996;56.290;2024-03-02T11:37:18;16.33;;;8.13;;
70663;SDS011;58237;57.996;56.290;2024-03-02T11:39:44;12.13;;;5.85;;
70663;SDS011;58237;57.996;56.290;2024-03-02T11:42:10;14.98;;;6.75;;
70663;SDS011;58237;57.996;56.290;2024-03-02T11:44:37;13.95;;;7.30;;
70663;SDS011;58237;57.996;56.290;2024-03-02T11:47:06;17.75;;;8.95;;
70663;SDS011;58237;57.996;56.290;2024-03-02T11:49:41;14.23;;;7.20;;
70663;SDS011;58237;57.996;56.290;2024-03-02T11:52:08;14.73;;;7.60;;
70663;SDS011;58237;57.996;56.290;2024-03-02T11:54:34;14.38;;;7.75;;
70663;SDS011;58237;57.996;56.290;2024-03-02T11:57:02;14.02;;;6.85;;
70663;SDS011;58237;57.996;56.290;2024-03-02T11:59:31;12.75;;;6.43;;
70663;SDS011;58237;57.996;56.290;2024-03-02T12:01:57;14.63;;;7.63;;
70663;SDS011;58237;57.996;56.290;2024-03-02T12:04:23;15.23;;;7.82;;
70663;SDS011;58237;57.996;56.290;2024-03-02T12:06:54;12.38;;;5.72;;
70663;SDS011;58237;57.996;56.290;2024-03-02T12:09:20;14.10;;;6.75;;
70663;SDS011;58237;57.996;56.290;2024-03-02T12:11:46;11.30;;;5.03;;
70663;SDS011;58237;57.996;56.290;2024-03-02T12:14:12;9.77;;;4.32;;
70663;SDS011;58237;57.996;56.290;2024-03-02T12:16:46;11.52;;;5.10;;
70663;SDS011;58237;57.996;56.290;2024-03-02T12:19:13;13.23;;;7.05;;
70663;SDS011;58237;57.996;56.290;2024-03-02T12:21:41;18.25;;;8.98;;
70663;SDS011;58237;57.996;56.290;2024-03-02T12:24:06;12.35;;;6.68;;
70663;SDS011;58237;57.996;56.290;2024-03-02T12:26:33;17.63;;;9.57;;
70663;SDS011;58237;57.996;56.290;2024-03-02T12:28:58;13.82;;;6.60;;
70663;SDS011;58237;57.996;56.290;2024-03-02T12:31:24;14.60;;;7.82;;
70663;SDS011;58237;57.996;56.290;2024-03-02T12:33:50;17.25;;;8.52;;
70663;SDS011;58237;57.996;56.290;2024-03-02T12:36:15;19.90;;;9.55;;
70663;SDS011;58237;57.996;56.290;2024-03-02T12:38:44;15.18;;;7.80;;
70663;SDS011;58237;57.996;56.290;2024-03-02T12:41:09;21.92;;;11.43;;
70663;SDS011;58237;57.996;56.290;2024-03-02T12:43:35;13.80;;;6.55;;
70663;SDS011;58237;57.996;56.290;2024-03-02T12:46:01;15.70;;;7.80;;
70663;SDS011;58237;57.996;56.290;2024-03-02T12:48:26;13.88;;;8.43;;
70663;SDS011;58237;57.996;56.290;2024-03-02T12:50:52;18.88;;;9.98;;
70663;SDS011;58237;57.996;56.290;2024-03-02T12:53:18;24.80;;;10.88;;
70663;SDS011;58237;57.996;56.290;2024-03-02T12:55:43;15.88;;;8.85;;
70663;SDS011;58237;57.996;56.290;2024-03-02T12:58:19;15.65;;;9.95;;
70663;SDS011;58237;57.996;56.290;2024-03-02T13:00:45;15.70;;;7.78;;
70663;SDS011;58237;57.996;56.290;2024-03-02T13:03:11;15.30;;;8.48;;
70663;SDS011;58237;57.996;56.290;2024-03-02T13:05:37;17.05;;;10.68;;
70663;SDS011;58237;57.996;56.290;2024-03-02T13:08:02;14.85;;;8.77;;
70663;SDS011;58237;57.996;56.290;2024-03-02T13:10:30;16.27;;;8.40;;
70663;SDS011;58237;57.996;56.290;2024-03-02T13:12:56;16.30;;;8.63;;
70663;SDS011;58237;57.996;56.290;2024-03-02T13:15:22;17.17;;;8.93;;
70663;SDS011;58237;57.996;56.290;2024-03-02T13:17:47;15.88;;;7.53;;
70663;SDS011;58237;57.996;56.290;2024-03-02T13:20:14;13.55;;;6.55;;
70663;SDS011;58237;57.996;56.290;2024-03-02T13:22:40;17.25;;;7.63;;
70663;SDS011;58237;57.996;56.290;2024-03-02T13:25:06;16.92;;;8.68;;
70663;SDS011;58237;57.996;56.290;2024-03-02T13:27:36;19.58;;;7.93;;
70663;SDS011;58237;57.996;56.290;2024-03-02T13:30:02;17.75;;;9.18;;
70663;SDS011;58237;57.996;56.290;2024-03-02T13:32:29;18.98;;;7.15;;
70663;SDS011;58237;57.996;56.290;2024-03-02T13:34:55;14.35;;;8.02;;
70663;SDS011;58237;57.996;56.290;2024-03-02T13:37:20;16.30;;;7.90;;
70663;SDS011;58237;57.996;56.290;2024-03-02T13:39:46;15.98;;;8.40;;
70663;SDS011;58237;57.996;56.290;2024-03-02T13:42:12;18.02;;;7.50;;
70663;SDS011;58237;57.996;56.290;2024-03-02T13:44:40;18.95;;;10.05;;
70663;SDS011;58237;57.996;56.290;2024-03-02T13:47:07;19.38;;;9.95;;
70663;SDS011;58237;57.996;56.290;2024-03-02T13:49:32;17.10;;;8.23;;
70663;SDS011;58237;57.996;56.290;2024-03-02T13:52:09;15.70;;;8.65;;
70663;SDS011;58237;57.996;56.290;2024-03-02T13:54:43;17.38;;;8.55;;
70663;SDS011;58237;57.996;56.290;2024-03-02T13:57:09;14.05;;;6.95;;
70663;SDS011;58237;57.996;56.290;2024-03-02T13:59:35;15.27;;;7.28;;
70663;SDS011;58237;57.996;56.290;2024-03-02T14:02:01;11.05;;;5.43;;
70663;SDS011;58237;57.996;56.290;2024-03-02T14:04:30;13.95;;;6.93;;
70663;SDS011;58237;57.996;56.290;2024-03-02T14:06:55;11.13;;;5.72;;
70663;SDS011;58237;57.996;56.290;2024-03-02T14:09:21;11.95;;;4.65;;
70663;SDS011;58237;57.996;56.290;2024-03-02T14:11:47;13.38;;;6.70;;
70663;SDS011;58237;57.996;56.290;2024-03-02T14:14:14;23.60;;;8.80;;
70663;SDS011;58237;57.996;56.290;2024-03-02T14:16:40;16.10;;;8.93;;
70663;SDS011;58237;57.996;56.290;2024-03-02T14:19:06;12.55;;;6.05;;
70663;SDS011;58237;57.996;56.290;2024-03-02T14:21:31;16.75;;;8.80;;
70663;SDS011;58237;57.996;56.290;2024-03-02T14:23:57;16.30;;;7.25;;
70663;SDS011;58237;57.996;56.290;2024-03-02T14:26:23;15.05;;;6.05;;
70663;SDS011;58237;57.996;56.290;2024-03-02T14:28:48;13.35;;;6.03;;
70663;SDS011;58237;57.996;56.290;2024-03-02T14:31:14;12.65;;;5.65;;